createdAt,value
2022-12-04T00:04:44.629Z,1.10
2022-12-04T00:29:38.883Z,3.20
2022-12-04T00:34:33.095Z,1.20
2022-12-04T00:36:59.965Z,1.80
2022-12-04T01:06:29.332Z,2.40
2022-12-04T01:08:57.179Z,2.50
2022-12-04T01:11:26.123Z,2.50
2022-12-04T01:16:26.042Z,2.50
2022-12-04T01:21:20.526Z,3.70
2022-12-04T01:31:13.305Z,3.80
2022-12-04T01:33:41.583Z,2.70
2022-12-04T01:36:11.868Z,2.60
2022-12-04T01:41:07.120Z,2.50
2022-12-04T01:43:36.277Z,2.50
2022-12-04T01:48:46.500Z,2.60
2022-12-04T01:51:26.445Z,1.30
2022-12-04T01:53:57.402Z,2.50
2022-12-04T01:56:29.401Z,2.50
2022-12-04T01:58:58.764Z,2.60
2022-12-04T02:01:29.178Z,2.60
2022-12-04T02:13:58.527Z,2.50
2022-12-04T02:16:40.906Z,2.60
2022-12-04T02:19:45.227Z,1.40
2022-12-04T02:22:35.567Z,2.40
2022-12-04T02:25:20.377Z,1.30
2022-12-04T02:28:15.613Z,2.40
2022-12-04T02:33:21.866Z,2.60
2022-12-04T02:36:15.972Z,2.50
2022-12-04T02:38:49.292Z,2.40
2022-12-04T02:41:23.734Z,2.50
2022-12-04T02:43:57.728Z,2.50
2022-12-04T02:48:56.172Z,2.50
2022-12-04T02:51:26.318Z,2.40
2022-12-04T02:54:06.039Z,2.40
2022-12-04T02:56:39.404Z,2.40
2022-12-04T02:59:12.526Z,2.40
2022-12-04T03:01:44.695Z,2.30
2022-12-04T03:04:26.935Z,2.40
2022-12-04T03:07:17.682Z,3.40
2022-12-04T03:09:52.293Z,3.60
2022-12-04T03:12:34.383Z,0.90
2022-12-04T03:15:09.169Z,2.30
2022-12-04T03:18:09.128Z,2.30
2022-12-04T03:20:38.576Z,2.40
2022-12-04T03:23:12.833Z,2.30
2022-12-04T03:25:52.367Z,2.40
2022-12-04T03:28:31.505Z,2.30
2022-12-04T03:31:06.678Z,2.30
2022-12-04T03:33:42.420Z,2.20
2022-12-04T03:36:21.178Z,2.90
2022-12-04T03:39:15.986Z,2.40
2022-12-04T03:42:13.588Z,3.20
2022-12-04T03:44:48.939Z,2.30
2022-12-04T03:47:36.724Z,3.40
2022-12-04T03:50:14.475Z,2.30
2022-12-04T03:53:02.079Z,3.40
2022-12-04T03:58:29.044Z,2.20
2022-12-04T04:00:58.221Z,2.40
2022-12-04T04:03:33.164Z,2.30
2022-12-04T04:06:15.822Z,2.20
2022-12-04T04:08:46.743Z,2.40
2022-12-04T04:11:26.236Z,2.50
2022-12-04T04:14:22.913Z,1.10
2022-12-04T04:17:15.925Z,2.40
2022-12-04T04:20:03.915Z,2.40
2022-12-04T04:25:24.900Z,2.50
2022-12-04T04:27:53.632Z,2.30
2022-12-04T04:32:53.907Z,2.40
2022-12-04T04:36:02.760Z,2.40
2022-12-04T04:38:42.642Z,2.30
2022-12-04T04:43:55.948Z,5.50
2022-12-04T04:46:33.264Z,3.00
2022-12-04T04:49:03.980Z,2.40
2022-12-04T04:51:33.559Z,2.20
2022-12-04T04:54:05.986Z,2.30
2022-12-04T05:01:28.561Z,2.30
2022-12-04T05:16:14.351Z,2.10
2022-12-04T05:21:16.382Z,2.30
2022-12-04T05:36:03.274Z,2.20
2022-12-04T05:41:02.443Z,2.30
2022-12-04T05:46:07.536Z,2.40
2022-12-04T05:48:35.668Z,2.30
2022-12-04T05:51:07.570Z,2.70
2022-12-04T05:56:03.099Z,2.30
2022-12-04T06:15:41.400Z,1.00
2022-12-04T06:30:24.640Z,2.30
2022-12-04T06:45:08.304Z,1.50
2022-12-04T06:47:36.233Z,2.40
2022-12-04T06:50:04.520Z,2.40
2022-12-04T06:52:36.055Z,2.30
2022-12-04T07:04:56.266Z,2.40
2022-12-04T07:14:45.113Z,2.80
2022-12-04T07:24:37.472Z,2.40
2022-12-04T07:49:12.789Z,2.40
2022-12-04T08:03:59.735Z,2.50
2022-12-04T08:06:28.244Z,2.40
2022-12-04T08:11:24.067Z,2.50
2022-12-04T08:14:02.016Z,2.50
2022-12-04T08:16:31.042Z,2.70
2022-12-04T08:21:28.084Z,2.60
2022-12-04T08:23:56.705Z,2.70
2022-12-04T08:26:25.941Z,2.60
2022-12-04T08:28:54.414Z,2.70
2022-12-04T08:31:24.404Z,2.60
2022-12-04T08:33:53.419Z,2.60
2022-12-04T08:36:22.386Z,2.70
2022-12-04T08:41:19.873Z,2.70
2022-12-04T08:46:16.240Z,2.60
2022-12-04T08:51:19.035Z,2.70
2022-12-04T09:01:12.957Z,2.90
2022-12-04T09:06:09.631Z,2.80
2022-12-04T09:08:37.514Z,2.70
2022-12-04T09:11:10.102Z,1.80
2022-12-04T09:16:06.960Z,2.60
2022-12-04T09:18:35.503Z,2.60
2022-12-04T09:21:05.366Z,2.80
2022-12-04T09:31:05.465Z,2.60
2022-12-04T09:33:33.194Z,2.80
2022-12-04T09:38:28.884Z,2.70
2022-12-04T09:41:29.490Z,3.40
2022-12-04T09:44:10.316Z,2.80
2022-12-04T09:46:58.952Z,3.00
2022-12-04T09:51:57.495Z,2.90
2022-12-04T09:54:30.628Z,2.90
2022-12-04T09:57:10.581Z,4.10
2022-12-04T09:59:38.259Z,2.90
2022-12-04T10:02:26.386Z,2.90
2022-12-04T10:07:25.830Z,2.90
2022-12-04T10:10:05.605Z,2.90
2022-12-04T10:15:24.726Z,2.80
2022-12-04T10:18:02.716Z,3.60
2022-12-04T10:21:06.616Z,2.80
2022-12-04T10:26:03.264Z,2.60
2022-12-04T10:31:01.625Z,2.80
2022-12-04T10:33:45.767Z,2.80
2022-12-04T10:36:17.489Z,2.90
2022-12-04T10:38:56.766Z,3.90
2022-12-04T10:41:41.247Z,2.80
2022-12-04T10:44:15.381Z,2.90
2022-12-04T10:46:45.875Z,2.10
2022-12-04T10:49:19.241Z,2.90
2022-12-04T10:51:47.359Z,2.70
2022-12-04T10:54:40.362Z,2.90
2022-12-04T10:57:10.078Z,2.80
2022-12-04T10:59:56.077Z,2.90
2022-12-04T11:02:28.959Z,2.90
2022-12-04T11:05:05.298Z,2.90
2022-12-04T11:07:43.154Z,2.80
2022-12-04T11:10:34.209Z,1.80
2022-12-04T11:13:04.694Z,2.90
2022-12-04T11:18:16.109Z,2.80
2022-12-04T11:20:53.460Z,2.90
2022-12-04T11:23:20.911Z,2.90
2022-12-04T11:25:50.261Z,2.80
2022-12-04T11:28:40.454Z,5.20
2022-12-04T11:31:11.153Z,3.00
2022-12-04T11:33:44.754Z,2.90
2022-12-04T11:36:49.428Z,2.80
2022-12-04T11:39:21.830Z,2.90
2022-12-04T11:42:00.927Z,2.80
2022-12-04T11:44:31.355Z,1.60
2022-12-04T11:47:01.894Z,2.70
2022-12-04T11:49:30.716Z,2.80
2022-12-04T11:52:30.044Z,2.60
2022-12-04T11:55:02.565Z,1.70
2022-12-04T11:57:50.354Z,4.00
2022-12-04T12:00:20.414Z,2.90
2022-12-04T12:03:10.692Z,3.00
2022-12-04T12:11:14.341Z,2.80
2022-12-04T12:14:14.322Z,2.50
2022-12-04T12:17:07.956Z,2.90
2022-12-04T12:20:17.444Z,3.00
2022-12-04T12:22:49.973Z,3.00
2022-12-04T12:25:21.549Z,3.00
2022-12-04T12:28:13.273Z,4.00
2022-12-04T12:31:06.424Z,3.10
2022-12-04T12:33:56.884Z,2.90
2022-12-04T12:36:26.527Z,2.80
2022-12-04T12:39:11.020Z,3.30
2022-12-04T12:41:43.918Z,2.90
2022-12-04T12:44:23.184Z,3.00
2022-12-04T12:47:28.663Z,3.10
2022-12-04T12:52:43.437Z,3.10
2022-12-04T12:55:20.011Z,3.10
2022-12-04T12:57:58.749Z,3.20
2022-12-04T13:03:01.447Z,3.10
2022-12-04T13:05:43.271Z,3.20
2022-12-04T13:08:34.006Z,3.90
2022-12-04T13:11:25.606Z,3.20
2022-12-04T13:13:57.020Z,3.20
2022-12-04T13:19:18.561Z,3.20
2022-12-04T13:22:03.673Z,4.10
2022-12-04T13:24:39.377Z,3.40
2022-12-04T13:27:21.333Z,2.20
2022-12-04T13:30:18.590Z,3.40
2022-12-04T13:33:10.161Z,3.40
2022-12-04T13:36:11.600Z,4.40
2022-12-04T13:38:57.853Z,4.50
2022-12-04T13:41:27.104Z,4.90
2022-12-04T13:46:30.470Z,3.30
2022-12-04T13:49:22.255Z,2.40
2022-12-04T13:51:49.775Z,3.30
2022-12-04T13:56:55.840Z,3.30
2022-12-04T13:59:30.494Z,2.10
2022-12-04T14:02:08.008Z,3.30
2022-12-04T14:04:46.086Z,4.30
2022-12-04T14:07:31.929Z,3.30
2022-12-04T14:10:04.587Z,3.30
2022-12-04T14:12:38.800Z,3.30
2022-12-04T14:15:23.827Z,2.40
2022-12-04T14:18:01.736Z,1.90
2022-12-04T14:20:32.059Z,2.00
2022-12-04T14:23:27.399Z,2.70
2022-12-04T14:25:57.705Z,3.30
2022-12-04T14:28:34.967Z,3.20
2022-12-04T14:33:45.488Z,3.20
2022-12-04T14:36:20.441Z,3.20
2022-12-04T14:38:50.729Z,3.20
2022-12-04T14:41:25.937Z,3.20
2022-12-04T14:49:27.105Z,6.10
2022-12-04T14:52:11.178Z,3.10
2022-12-04T14:55:21.919Z,3.00
2022-12-04T15:00:24.756Z,1.80
2022-12-04T15:02:58.483Z,3.20
2022-12-04T15:07:56.776Z,3.20
2022-12-04T15:10:50.881Z,3.20
2022-12-04T15:13:32.463Z,3.30
2022-12-04T15:16:15.529Z,3.10
2022-12-04T15:18:59.726Z,3.10
2022-12-04T15:21:40.804Z,3.40
2022-12-04T15:24:09.485Z,3.20
2022-12-04T15:26:37.592Z,3.20
2022-12-04T15:29:07.178Z,3.20
2022-12-04T15:31:48.354Z,2.60
2022-12-04T15:34:18.430Z,3.10
2022-12-04T15:36:52.016Z,3.20
2022-12-04T15:39:27.832Z,3.10
2022-12-04T15:42:23.159Z,3.10
2022-12-04T15:45:10.243Z,3.10
2022-12-04T15:47:41.076Z,3.10
2022-12-04T15:50:16.687Z,2.20
2022-12-04T15:53:14.386Z,3.20
2022-12-04T15:55:53.816Z,3.70
2022-12-04T15:58:41.441Z,3.10
2022-12-04T16:01:11.080Z,3.20
2022-12-04T16:03:50.406Z,3.10
2022-12-04T16:06:27.450Z,3.00
2022-12-04T16:09:14.541Z,3.00
2022-12-04T16:16:43.581Z,3.10
2022-12-04T16:19:36.319Z,3.00
2022-12-04T16:22:10.382Z,3.10
2022-12-04T16:27:12.481Z,3.20
2022-12-04T16:32:16.464Z,3.20
2022-12-04T16:34:43.618Z,2.00
2022-12-04T16:37:19.907Z,3.20
2022-12-04T16:42:23.551Z,3.20
2022-12-04T16:49:47.906Z,1.90
2022-12-04T16:59:37.754Z,3.20
2022-12-04T17:02:12.961Z,2.60
2022-12-04T17:16:58.652Z,2.20
2022-12-04T17:29:14.534Z,4.70
2022-12-04T17:43:59.931Z,4.60
2022-12-04T17:46:26.781Z,2.90
2022-12-04T17:48:56.640Z,3.50
2022-12-04T17:51:24.963Z,3.60
2022-12-04T17:56:22.170Z,3.70
2022-12-04T18:01:22.475Z,3.20
2022-12-04T18:03:58.185Z,3.60
2022-12-04T18:06:27.430Z,3.50
2022-12-04T18:11:24.528Z,3.60
2022-12-04T18:14:08.565Z,3.50
2022-12-04T18:16:42.570Z,3.60
2022-12-04T18:19:10.913Z,3.60
2022-12-04T18:24:05.920Z,3.50
2022-12-04T18:26:35.630Z,3.60
2022-12-04T18:36:28.368Z,3.60
2022-12-04T18:38:57.930Z,3.60
2022-12-04T18:48:48.508Z,3.80
2022-12-04T18:51:24.139Z,3.70
2022-12-04T18:53:53.294Z,3.90
2022-12-04T19:01:18.953Z,3.90
2022-12-04T19:03:47.444Z,3.90
2022-12-04T19:06:14.787Z,3.90
2022-12-04T19:11:15.441Z,4.00
2022-12-04T19:16:14.622Z,4.20
2022-12-04T19:18:45.024Z,3.90
2022-12-04T19:26:06.887Z,4.40
2022-12-04T19:28:33.740Z,4.50
2022-12-04T19:36:01.258Z,4.80
2022-12-04T19:41:10.132Z,4.00
2022-12-04T19:43:42.220Z,3.90
2022-12-04T19:46:11.544Z,3.90
2022-12-04T19:48:38.958Z,2.60
2022-12-04T19:51:08.448Z,4.00
2022-12-04T19:56:14.013Z,3.10
2022-12-04T20:01:12.213Z,4.10
2022-12-04T20:06:14.301Z,4.00
2022-12-04T20:08:42.374Z,4.10
2022-12-04T20:11:12.259Z,4.10
2022-12-04T20:13:40.203Z,4.10
2022-12-04T20:16:11.520Z,2.70
2022-12-04T20:18:39.552Z,4.10
2022-12-04T20:21:11.106Z,4.00
2022-12-04T20:23:42.498Z,4.10
2022-12-04T20:26:12.406Z,4.10
2022-12-04T20:31:18.166Z,4.20
2022-12-04T20:33:47.156Z,4.10
2022-12-04T20:36:15.636Z,2.90
2022-12-04T20:41:13.629Z,4.30
2022-12-04T20:43:40.440Z,4.20
2022-12-04T20:46:35.106Z,4.20
2022-12-04T20:49:04.361Z,4.00
2022-12-04T20:51:33.881Z,4.20
2022-12-04T20:56:31.574Z,4.10
2022-12-04T20:59:00.153Z,4.30
2022-12-04T21:01:28.115Z,4.20
2022-12-04T21:06:34.544Z,4.30
2022-12-04T21:09:22.091Z,4.20
2022-12-04T21:11:52.841Z,3.60
2022-12-04T21:14:41.039Z,4.10
2022-12-04T21:17:10.924Z,4.20
2022-12-04T21:27:07.731Z,4.30
2022-12-04T21:42:11.135Z,4.40
2022-12-04T21:54:28.650Z,4.30
2022-12-04T21:56:56.584Z,4.40
2022-12-04T21:59:24.933Z,4.50
2022-12-04T22:14:10.168Z,4.40
2022-12-04T22:24:05.357Z,4.70
2022-12-04T22:31:28.735Z,4.50
2022-12-04T22:33:57.905Z,4.50
2022-12-04T22:36:29.544Z,4.60
2022-12-04T22:39:12.139Z,3.40
2022-12-04T22:49:04.081Z,3.80
2022-12-04T22:53:58.869Z,4.50
2022-12-04T22:56:28.358Z,4.60
2022-12-04T23:01:25.343Z,4.60
2022-12-04T23:03:53.397Z,4.60
2022-12-04T23:06:22.297Z,4.60
2022-12-04T23:11:19.181Z,4.60
2022-12-04T23:13:53.712Z,4.90
2022-12-04T23:16:22.233Z,4.70
2022-12-04T23:18:49.880Z,4.70
2022-12-04T23:21:17.282Z,4.80
2022-12-04T23:23:45.984Z,4.80
2022-12-04T23:26:16.396Z,1.20
2022-12-04T23:33:39.450Z,4.80
2022-12-04T23:36:08.305Z,4.80
2022-12-04T23:38:36.893Z,4.80
2022-12-04T23:48:26.030Z,5.30
2022-12-04T23:53:21.387Z,5.00
2022-12-04T23:56:11.708Z,5.80
2022-12-04T23:58:39.023Z,5.10
